sensor_id;sensor_type;location;lat;lon;timestamp;temperature;humidity
23073;DHT22;67971;51.046;3.732;2023-08-06T00:02:20;17.00;99.90
23073;DHT22;67971;51.046;3.732;2023-08-06T00:04:45;17.00;99.90
23073;DHT22;67971;51.046;3.732;2023-08-06T00:07:11;17.10;99.90
23073;DHT22;67971;51.046;3.732;2023-08-06T00:09:37;17.10;99.90
23073;DHT22;67971;51.046;3.732;2023-08-06T00:12:03;17.10;99.90
23073;DHT22;67971;51.046;3.732;2023-08-06T00:14:28;17.10;99.90
23073;DHT22;67971;51.046;3.732;2023-08-06T00:16:54;17.00;99.90
23073;DHT22;67971;51.046;3.732;2023-08-06T00:19:20;16.90;99.90
23073;DHT22;67971;51.046;3.732;2023-08-06T00:21:45;16.90;99.90
23073;DHT22;67971;51.046;3.732;2023-08-06T00:24:11;16.90;99.90
23073;DHT22;67971;51.046;3.732;2023-08-06T00:26:36;16.90;99.90
23073;DHT22;67971;51.046;3.732;2023-08-06T00:29:02;16.90;99.90
23073;DHT22;67971;51.046;3.732;2023-08-06T00:31:28;17.00;99.90
23073;DHT22;67971;51.046;3.732;2023-08-06T00:33:53;17.00;99.90
23073;DHT22;67971;51.046;3.732;2023-08-06T00:36:19;17.00;99.90
23073;DHT22;67971;51.046;3.732;2023-08-06T00:38:45;17.10;99.90
23073;DHT22;67971;51.046;3.732;2023-08-06T00:41:10;17.10;99.90
23073;DHT22;67971;51.046;3.732;2023-08-06T00:43:36;17.00;99.90
23073;DHT22;67971;51.046;3.732;2023-08-06T00:46:01;16.90;99.90
23073;DHT22;67971;51.046;3.732;2023-08-06T00:48:27;17.00;99.90
23073;DHT22;67971;51.046;3.732;2023-08-06T00:50:53;17.10;99.90
23073;DHT22;67971;51.046;3.732;2023-08-06T00:53:19;17.30;99.90
23073;DHT22;67971;51.046;3.732;2023-08-06T00:55:45;17.40;99.90
23073;DHT22;67971;51.046;3.732;2023-08-06T00:58:12;17.40;99.90
23073;DHT22;67971;51.046;3.732;2023-08-06T01:00:38;17.50;99.90
23073;DHT22;67971;51.046;3.732;2023-08-06T01:03:04;17.60;99.90
23073;DHT22;67971;51.046;3.732;2023-08-06T01:05:29;17.60;99.90
23073;DHT22;67971;51.046;3.732;2023-08-06T01:13:42;17.70;99.90
23073;DHT22;67971;51.046;3.732;2023-08-06T01:16:10;17.50;99.90
23073;DHT22;67971;51.046;3.732;2023-08-06T01:18:36;17.30;99.90
23073;DHT22;67971;51.046;3.732;2023-08-06T01:21:04;17.20;99.90
23073;DHT22;67971;51.046;3.732;2023-08-06T01:23:30;17.10;99.90
23073;DHT22;67971;51.046;3.732;2023-08-06T01:26:15;17.00;99.90
23073;DHT22;67971;51.046;3.732;2023-08-06T01:28:52;17.00;99.90
23073;DHT22;67971;51.046;3.732;2023-08-06T01:31:26;17.00;99.90
23073;DHT22;67971;51.046;3.732;2023-08-06T01:33:53;17.20;99.90
23073;DHT22;67971;51.046;3.732;2023-08-06T01:36:21;17.20;99.90
23073;DHT22;67971;51.046;3.732;2023-08-06T01:38:48;17.30;99.90
23073;DHT22;67971;51.046;3.732;2023-08-06T01:41:14;17.20;99.90
23073;DHT22;67971;51.046;3.732;2023-08-06T01:43:39;16.90;99.90
23073;DHT22;67971;51.046;3.732;2023-08-06T01:46:05;16.70;99.90
23073;DHT22;67971;51.046;3.732;2023-08-06T01:48:31;16.70;99.90
23073;DHT22;67971;51.046;3.732;2023-08-06T01:50:56;16.70;99.90
23073;DHT22;67971;51.046;3.732;2023-08-06T01:53:22;16.70;99.90
23073;DHT22;67971;51.046;3.732;2023-08-06T01:55:50;16.70;99.90
23073;DHT22;67971;51.046;3.732;2023-08-06T01:58:16;16.70;99.90
23073;DHT22;67971;51.046;3.732;2023-08-06T02:00:42;16.60;99.90
23073;DHT22;67971;51.046;3.732;2023-08-06T02:03:07;16.50;99.90
23073;DHT22;67971;51.046;3.732;2023-08-06T02:05:33;16.50;99.90
23073;DHT22;67971;51.046;3.732;2023-08-06T02:07:59;16.50;99.90
23073;DHT22;67971;51.046;3.732;2023-08-06T02:10:24;16.40;99.90
23073;DHT22;67971;51.046;3.732;2023-08-06T02:12:50;16.50;99.90
23073;DHT22;67971;51.046;3.732;2023-08-06T02:15:16;16.50;99.90
23073;DHT22;67971;51.046;3.732;2023-08-06T02:17:41;16.50;99.90
23073;DHT22;67971;51.046;3.732;2023-08-06T02:20:07;16.40;99.90
23073;DHT22;67971;51.046;3.732;2023-08-06T02:22:33;16.30;99.90
23073;DHT22;67971;51.046;3.732;2023-08-06T02:24:58;16.30;99.90
23073;DHT22;67971;51.046;3.732;2023-08-06T02:27:24;16.30;99.90
23073;DHT22;67971;51.046;3.732;2023-08-06T02:29:50;16.10;99.90
23073;DHT22;67971;51.046;3.732;2023-08-06T02:32:16;16.10;99.90
23073;DHT22;67971;51.046;3.732;2023-08-06T02:34:41;16.20;99.90
23073;DHT22;67971;51.046;3.732;2023-08-06T02:37:07;16.10;99.90
23073;DHT22;67971;51.046;3.732;2023-08-06T02:39:32;16.00;99.90
23073;DHT22;67971;51.046;3.732;2023-08-06T02:41:59;16.00;99.90
23073;DHT22;67971;51.046;3.732;2023-08-06T02:44:28;15.90;99.90
23073;DHT22;67971;51.046;3.732;2023-08-06T02:46:54;15.90;99.90
23073;DHT22;67971;51.046;3.732;2023-08-06T02:49:19;15.80;99.90
23073;DHT22;67971;51.046;3.732;2023-08-06T02:51:45;15.70;99.90
23073;DHT22;67971;51.046;3.732;2023-08-06T02:54:11;15.60;99.90
23073;DHT22;67971;51.046;3.732;2023-08-06T02:56:37;15.50;99.90
23073;DHT22;67971;51.046;3.732;2023-08-06T02:59:03;15.50;99.90
23073;DHT22;67971;51.046;3.732;2023-08-06T03:01:29;15.50;99.90
23073;DHT22;67971;51.046;3.732;2023-08-06T03:03:55;15.60;99.90
23073;DHT22;67971;51.046;3.732;2023-08-06T03:06:20;15.60;99.90
23073;DHT22;67971;51.046;3.732;2023-08-06T03:08:46;15.40;99.90
23073;DHT22;67971;51.046;3.732;2023-08-06T03:11:12;15.40;99.90
23073;DHT22;67971;51.046;3.732;2023-08-06T03:13:37;15.40;99.90
23073;DHT22;67971;51.046;3.732;2023-08-06T03:16:03;15.40;99.90
23073;DHT22;67971;51.046;3.732;2023-08-06T03:18:29;15.50;99.90
23073;DHT22;67971;51.046;3.732;2023-08-06T03:20:55;15.50;99.90
23073;DHT22;67971;51.046;3.732;2023-08-06T03:23:20;15.50;99.90
23073;DHT22;67971;51.046;3.732;2023-08-06T03:25:46;15.50;99.90
23073;DHT22;67971;51.046;3.732;2023-08-06T03:28:12;15.50;99.90
23073;DHT22;67971;51.046;3.732;2023-08-06T03:30:38;15.50;99.90
23073;DHT22;67971;51.046;3.732;2023-08-06T03:33:04;15.50;99.90
23073;DHT22;67971;51.046;3.732;2023-08-06T03:35:30;15.60;99.90
23073;DHT22;67971;51.046;3.732;2023-08-06T03:37:55;15.70;99.90
23073;DHT22;67971;51.046;3.732;2023-08-06T03:40:21;15.60;99.90
23073;DHT22;67971;51.046;3.732;2023-08-06T03:42:46;15.60;99.90
23073;DHT22;67971;51.046;3.732;2023-08-06T03:45:12;15.60;99.90
23073;DHT22;67971;51.046;3.732;2023-08-06T03:47:38;15.50;99.90
23073;DHT22;67971;51.046;3.732;2023-08-06T03:50:04;15.60;99.90
23073;DHT22;67971;51.046;3.732;2023-08-06T03:52:29;15.60;99.90
23073;DHT22;67971;51.046;3.732;2023-08-06T03:54:55;15.70;99.90
23073;DHT22;67971;51.046;3.732;2023-08-06T03:57:21;15.70;99.90
23073;DHT22;67971;51.046;3.732;2023-08-06T03:59:47;15.80;99.90
23073;DHT22;67971;51.046;3.732;2023-08-06T04:02:12;15.80;99.90
23073;DHT22;67971;51.046;3.732;2023-08-06T04:04:38;15.80;99.90
23073;DHT22;67971;51.046;3.732;2023-08-06T04:07:04;15.80;99.90
23073;DHT22;67971;51.046;3.732;2023-08-06T04:09:29;15.80;99.90
23073;DHT22;67971;51.046;3.732;2023-08-06T04:11:55;15.90;99.90
23073;DHT22;67971;51.046;3.732;2023-08-06T04:14:21;15.90;99.90
23073;DHT22;67971;51.046;3.732;2023-08-06T04:16:46;15.80;99.90
23073;DHT22;67971;51.046;3.732;2023-08-06T04:19:12;15.90;99.90
23073;DHT22;67971;51.046;3.732;2023-08-06T04:21:38;16.00;99.90
23073;DHT22;67971;51.046;3.732;2023-08-06T04:24:03;16.00;99.90
23073;DHT22;67971;51.046;3.732;2023-08-06T04:26:29;16.00;99.90
23073;DHT22;67971;51.046;3.732;2023-08-06T04:28:55;15.90;99.90
23073;DHT22;67971;51.046;3.732;2023-08-06T04:31:21;15.90;99.90
23073;DHT22;67971;51.046;3.732;2023-08-06T04:33:47;15.80;99.90
23073;DHT22;67971;51.046;3.732;2023-08-06T04:36:12;15.80;99.90
23073;DHT22;67971;51.046;3.732;2023-08-06T04:38:38;15.70;99.90
23073;DHT22;67971;51.046;3.732;2023-08-06T04:41:04;15.70;99.90
23073;DHT22;67971;51.046;3.732;2023-08-06T04:43:29;15.70;99.90
23073;DHT22;67971;51.046;3.732;2023-08-06T04:45:55;15.70;99.90
23073;DHT22;67971;51.046;3.732;2023-08-06T04:48:22;15.70;99.90
23073;DHT22;67971;51.046;3.732;2023-08-06T04:50:49;15.70;99.90
23073;DHT22;67971;51.046;3.732;2023-08-06T04:53:15;15.70;99.90
23073;DHT22;67971;51.046;3.732;2023-08-06T04:55:41;15.60;99.90
23073;DHT22;67971;51.046;3.732;2023-08-06T04:58:09;15.70;99.90
23073;DHT22;67971;51.046;3.732;2023-08-06T05:00:35;15.70;99.90
23073;DHT22;67971;51.046;3.732;2023-08-06T05:03:01;15.80;99.90
23073;DHT22;67971;51.046;3.732;2023-08-06T05:05:28;15.80;99.90
23073;DHT22;67971;51.046;3.732;2023-08-06T05:07:55;15.90;99.90
23073;DHT22;67971;51.046;3.732;2023-08-06T05:10:23;15.90;99.90
23073;DHT22;67971;51.046;3.732;2023-08-06T05:12:49;15.90;99.90
23073;DHT22;67971;51.046;3.732;2023-08-06T05:15:15;15.70;99.90
23073;DHT22;67971;51.046;3.732;2023-08-06T05:17:40;15.70;99.90
23073;DHT22;67971;51.046;3.732;2023-08-06T05:20:06;15.60;99.90
23073;DHT22;67971;51.046;3.732;2023-08-06T05:22:32;15.70;99.90
23073;DHT22;67971;51.046;3.732;2023-08-06T05:24:58;15.80;99.90
23073;DHT22;67971;51.046;3.732;2023-08-06T05:27:23;15.80;99.90
23073;DHT22;67971;51.046;3.732;2023-08-06T05:29:49;15.90;99.90
23073;DHT22;67971;51.046;3.732;2023-08-06T05:32:14;15.90;99.90
23073;DHT22;67971;51.046;3.732;2023-08-06T05:34:40;16.00;99.90
23073;DHT22;67971;51.046;3.732;2023-08-06T05:37:07;16.00;99.90
23073;DHT22;67971;51.046;3.732;2023-08-06T05:39:32;16.00;99.90
23073;DHT22;67971;51.046;3.732;2023-08-06T05:41:58;16.10;99.90
23073;DHT22;67971;51.046;3.732;2023-08-06T05:44:24;16.00;99.90
23073;DHT22;67971;51.046;3.732;2023-08-06T05:46:50;16.00;99.90
23073;DHT22;67971;51.046;3.732;2023-08-06T05:49:15;16.00;99.90
23073;DHT22;67971;51.046;3.732;2023-08-06T05:51:42;16.10;99.90
23073;DHT22;67971;51.046;3.732;2023-08-06T05:54:07;15.90;99.90
23073;DHT22;67971;51.046;3.732;2023-08-06T05:56:33;15.90;99.90
23073;DHT22;67971;51.046;3.732;2023-08-06T05:58:59;15.90;99.90
23073;DHT22;67971;51.046;3.732;2023-08-06T06:01:24;16.00;99.90
23073;DHT22;67971;51.046;3.732;2023-08-06T06:03:50;16.00;99.90
23073;DHT22;67971;51.046;3.732;2023-08-06T06:06:15;15.90;99.90
23073;DHT22;67971;51.046;3.732;2023-08-06T06:08:42;15.90;99.90
23073;DHT22;67971;51.046;3.732;2023-08-06T06:11:07;15.90;99.90
23073;DHT22;67971;51.046;3.732;2023-08-06T06:13:33;15.80;99.90
23073;DHT22;67971;51.046;3.732;2023-08-06T06:15:58;15.80;99.90
23073;DHT22;67971;51.046;3.732;2023-08-06T06:18:24;15.80;99.90
23073;DHT22;67971;51.046;3.732;2023-08-06T06:20:50;16.00;99.90
23073;DHT22;67971;51.046;3.732;2023-08-06T06:23:15;16.00;99.90
23073;DHT22;67971;51.046;3.732;2023-08-06T06:25:49;16.10;99.90
23073;DHT22;67971;51.046;3.732;2023-08-06T06:28:17;16.30;99.90
23073;DHT22;67971;51.046;3.732;2023-08-06T06:30:43;16.10;99.90
23073;DHT22;67971;51.046;3.732;2023-08-06T06:33:08;16.10;99.90
23073;DHT22;67971;51.046;3.732;2023-08-06T06:35:34;16.10;99.90
23073;DHT22;67971;51.046;3.732;2023-08-06T06:37:59;16.00;99.90
23073;DHT22;67971;51.046;3.732;2023-08-06T06:40:26;16.00;99.90
23073;DHT22;67971;51.046;3.732;2023-08-06T06:42:51;15.90;99.90
23073;DHT22;67971;51.046;3.732;2023-08-06T06:45:17;15.70;99.90
23073;DHT22;67971;51.046;3.732;2023-08-06T06:47:43;15.80;99.90
23073;DHT22;67971;51.046;3.732;2023-08-06T06:50:09;15.80;99.90
23073;DHT22;67971;51.046;3.732;2023-08-06T06:52:34;15.90;99.90
23073;DHT22;67971;51.046;3.732;2023-08-06T06:55:00;16.10;99.90
23073;DHT22;67971;51.046;3.732;2023-08-06T06:57:26;16.30;99.90
23073;DHT22;67971;51.046;3.732;2023-08-06T06:59:51;16.40;99.90
23073;DHT22;67971;51.046;3.732;2023-08-06T07:02:17;16.50;99.90
23073;DHT22;67971;51.046;3.732;2023-08-06T07:04:43;16.70;99.90
23073;DHT22;67971;51.046;3.732;2023-08-06T07:07:08;16.60;99.90
23073;DHT22;67971;51.046;3.732;2023-08-06T07:09:34;16.50;99.90
23073;DHT22;67971;51.046;3.732;2023-08-06T07:11:59;16.50;99.90
23073;DHT22;67971;51.046;3.732;2023-08-06T07:14:27;16.70;99.90
23073;DHT22;67971;51.046;3.732;2023-08-06T07:16:53;16.90;99.90
23073;DHT22;67971;51.046;3.732;2023-08-06T07:19:19;17.00;99.90
23073;DHT22;67971;51.046;3.732;2023-08-06T07:21:45;17.10;99.90
23073;DHT22;67971;51.046;3.732;2023-08-06T07:24:10;17.20;99.90
23073;DHT22;67971;51.046;3.732;2023-08-06T07:26:37;17.20;99.90
23073;DHT22;67971;51.046;3.732;2023-08-06T07:29:02;17.00;99.90
23073;DHT22;67971;51.046;3.732;2023-08-06T07:31:28;16.90;99.90
23073;DHT22;67971;51.046;3.732;2023-08-06T07:33:54;16.60;99.90
23073;DHT22;67971;51.046;3.732;2023-08-06T07:36:19;16.50;99.90
23073;DHT22;67971;51.046;3.732;2023-08-06T07:38:45;16.40;99.90
23073;DHT22;67971;51.046;3.732;2023-08-06T07:41:11;16.50;99.90
23073;DHT22;67971;51.046;3.732;2023-08-06T07:43:36;16.40;99.90
23073;DHT22;67971;51.046;3.732;2023-08-06T07:46:02;16.40;99.90
23073;DHT22;67971;51.046;3.732;2023-08-06T07:48:28;16.40;99.90
23073;DHT22;67971;51.046;3.732;2023-08-06T07:50:55;16.20;99.90
23073;DHT22;67971;51.046;3.732;2023-08-06T07:53:21;16.30;99.90
23073;DHT22;67971;51.046;3.732;2023-08-06T07:55:51;16.20;99.90
23073;DHT22;67971;51.046;3.732;2023-08-06T07:58:18;16.40;99.90
23073;DHT22;67971;51.046;3.732;2023-08-06T08:00:43;16.60;99.90
23073;DHT22;67971;51.046;3.732;2023-08-06T08:03:11;16.80;99.90
23073;DHT22;67971;51.046;3.732;2023-08-06T08:05:38;17.00;99.90
23073;DHT22;67971;51.046;3.732;2023-08-06T08:08:04;17.00;99.90
23073;DHT22;67971;51.046;3.732;2023-08-06T08:10:31;17.00;99.90
23073;DHT22;67971;51.046;3.732;2023-08-06T08:12:57;17.00;99.90
23073;DHT22;67971;51.046;3.732;2023-08-06T08:15:22;16.90;99.90
23073;DHT22;67971;51.046;3.732;2023-08-06T08:17:48;16.70;99.90
23073;DHT22;67971;51.046;3.732;2023-08-06T08:20:16;16.60;99.90
23073;DHT22;67971;51.046;3.732;2023-08-06T08:22:41;16.60;99.90
23073;DHT22;67971;51.046;3.732;2023-08-06T08:25:07;16.60;99.90
23073;DHT22;67971;51.046;3.732;2023-08-06T08:27:33;16.70;99.90
23073;DHT22;67971;51.046;3.732;2023-08-06T08:29:58;16.80;99.90
23073;DHT22;67971;51.046;3.732;2023-08-06T08:32:24;16.70;99.90
23073;DHT22;67971;51.046;3.732;2023-08-06T08:34:49;16.50;99.90
23073;DHT22;67971;51.046;3.732;2023-08-06T08:37:15;16.50;99.90
23073;DHT22;67971;51.046;3.732;2023-08-06T08:39:41;16.40;99.90
23073;DHT22;67971;51.046;3.732;2023-08-06T08:42:06;16.40;99.90
23073;DHT22;67971;51.046;3.732;2023-08-06T08:44:32;16.50;99.90
23073;DHT22;67971;51.046;3.732;2023-08-06T08:46:59;16.40;99.90
23073;DHT22;67971;51.046;3.732;2023-08-06T08:49:26;16.50;99.90
23073;DHT22;67971;51.046;3.732;2023-08-06T08:51:53;16.40;99.90
23073;DHT22;67971;51.046;3.732;2023-08-06T08:54:21;16.40;99.90
23073;DHT22;67971;51.046;3.732;2023-08-06T08:56:48;16.50;99.90
23073;DHT22;67971;51.046;3.732;2023-08-06T08:59:14;16.50;99.90
23073;DHT22;67971;51.046;3.732;2023-08-06T09:01:40;16.50;99.90
23073;DHT22;67971;51.046;3.732;2023-08-06T09:04:08;16.40;99.90
23073;DHT22;67971;51.046;3.732;2023-08-06T09:06:37;16.30;99.90
23073;DHT22;67971;51.046;3.732;2023-08-06T09:09:13;16.40;99.90
23073;DHT22;67971;51.046;3.732;2023-08-06T09:11:45;16.60;99.90
23073;DHT22;67971;51.046;3.732;2023-08-06T09:14:13;16.60;99.90
23073;DHT22;67971;51.046;3.732;2023-08-06T09:16:39;16.50;99.90
23073;DHT22;67971;51.046;3.732;2023-08-06T09:19:11;16.50;99.90
23073;DHT22;67971;51.046;3.732;2023-08-06T09:21:45;16.50;99.90
23073;DHT22;67971;51.046;3.732;2023-08-06T09:24:13;16.60;99.90
23073;DHT22;67971;51.046;3.732;2023-08-06T09:26:41;16.70;99.90
23073;DHT22;67971;51.046;3.732;2023-08-06T09:29:08;16.80;99.90
23073;DHT22;67971;51.046;3.732;2023-08-06T09:34:14;17.00;99.90
23073;DHT22;67971;51.046;3.732;2023-08-06T09:36:52;17.10;99.90
23073;DHT22;67971;51.046;3.732;2023-08-06T09:39:20;17.30;99.90
23073;DHT22;67971;51.046;3.732;2023-08-06T09:41:46;17.80;99.90
23073;DHT22;67971;51.046;3.732;2023-08-06T09:44:16;18.20;99.90
23073;DHT22;67971;51.046;3.732;2023-08-06T09:49:12;17.70;99.90
23073;DHT22;67971;51.046;3.732;2023-08-06T09:51:38;17.50;99.90
23073;DHT22;67971;51.046;3.732;2023-08-06T09:54:05;17.20;99.90
23073;DHT22;67971;51.046;3.732;2023-08-06T09:56:33;17.10;99.90
23073;DHT22;67971;51.046;3.732;2023-08-06T09:59:04;17.10;99.90
23073;DHT22;67971;51.046;3.732;2023-08-06T10:01:35;17.10;99.90
23073;DHT22;67971;51.046;3.732;2023-08-06T10:04:06;17.10;99.90
23073;DHT22;67971;51.046;3.732;2023-08-06T10:06:36;17.10;99.90
23073;DHT22;67971;51.046;3.732;2023-08-06T10:09:03;17.00;99.90
23073;DHT22;67971;51.046;3.732;2023-08-06T10:11:29;17.00;99.90
23073;DHT22;67971;51.046;3.732;2023-08-06T10:14:08;17.20;99.90
23073;DHT22;67971;51.046;3.732;2023-08-06T10:16:36;17.30;99.90
23073;DHT22;67971;51.046;3.732;2023-08-06T10:19:04;17.40;99.90
23073;DHT22;67971;51.046;3.732;2023-08-06T10:21:33;17.60;99.90
23073;DHT22;67971;51.046;3.732;2023-08-06T10:23:59;17.70;99.90
23073;DHT22;67971;51.046;3.732;2023-08-06T10:26:30;17.80;99.90
23073;DHT22;67971;51.046;3.732;2023-08-06T10:28:56;17.60;99.90
23073;DHT22;67971;51.046;3.732;2023-08-06T10:31:54;17.50;99.90
23073;DHT22;67971;51.046;3.732;2023-08-06T10:34:21;17.40;99.90
23073;DHT22;67971;51.046;3.732;2023-08-06T10:36:46;17.30;99.90
23073;DHT22;67971;51.046;3.732;2023-08-06T10:39:15;17.20;99.90
23073;DHT22;67971;51.046;3.732;2023-08-06T10:41:42;17.10;99.90
23073;DHT22;67971;51.046;3.732;2023-08-06T10:44:10;17.10;99.90
23073;DHT22;67971;51.046;3.732;2023-08-06T10:46:38;16.90;99.90
23073;DHT22;67971;51.046;3.732;2023-08-06T10:49:04;17.00;99.90
23073;DHT22;67971;51.046;3.732;2023-08-06T10:51:30;17.00;99.90
23073;DHT22;67971;51.046;3.732;2023-08-06T10:53:56;17.00;99.90
23073;DHT22;67971;51.046;3.732;2023-08-06T10:56:24;16.90;99.90
23073;DHT22;67971;51.046;3.732;2023-08-06T10:58:56;16.90;99.90
23073;DHT22;67971;51.046;3.732;2023-08-06T11:01:23;16.80;99.90
23073;DHT22;67971;51.046;3.732;2023-08-06T11:03:50;16.70;99.90
23073;DHT22;67971;51.046;3.732;2023-08-06T11:06:20;16.50;99.90
23073;DHT22;67971;51.046;3.732;2023-08-06T11:08:53;16.20;99.90
23073;DHT22;67971;51.046;3.732;2023-08-06T11:11:20;15.90;99.90
23073;DHT22;67971;51.046;3.732;2023-08-06T11:13:48;16.00;99.90
23073;DHT22;67971;51.046;3.732;2023-08-06T11:16:18;16.10;99.90
23073;DHT22;67971;51.046;3.732;2023-08-06T11:18:44;16.00;99.90
23073;DHT22;67971;51.046;3.732;2023-08-06T11:21:11;16.10;99.90
23073;DHT22;67971;51.046;3.732;2023-08-06T11:23:40;16.40;99.90
23073;DHT22;67971;51.046;3.732;2023-08-06T11:26:05;16.80;99.90
23073;DHT22;67971;51.046;3.732;2023-08-06T11:28:31;17.30;99.90
23073;DHT22;67971;51.046;3.732;2023-08-06T11:30:58;17.80;99.90
23073;DHT22;67971;51.046;3.732;2023-08-06T11:33:27;17.80;99.90
23073;DHT22;67971;51.046;3.732;2023-08-06T11:35:55;17.70;99.90
23073;DHT22;67971;51.046;3.732;2023-08-06T11:38:21;17.80;99.90
23073;DHT22;67971;51.046;3.732;2023-08-06T11:40:50;17.90;99.90
23073;DHT22;67971;51.046;3.732;2023-08-06T11:43:18;18.10;99.90
23073;DHT22;67971;51.046;3.732;2023-08-06T11:45:46;18.10;99.90
23073;DHT22;67971;51.046;3.732;2023-08-06T11:48:15;18.10;99.90
23073;DHT22;67971;51.046;3.732;2023-08-06T11:50:40;18.30;99.90
23073;DHT22;67971;51.046;3.732;2023-08-06T11:53:06;18.50;99.90
23073;DHT22;67971;51.046;3.732;2023-08-06T11:55:32;18.70;99.90
23073;DHT22;67971;51.046;3.732;2023-08-06T11:57:59;18.00;99.90
23073;DHT22;67971;51.046;3.732;2023-08-06T12:00:29;17.50;99.90
23073;DHT22;67971;51.046;3.732;2023-08-06T12:02:56;17.20;99.90
23073;DHT22;67971;51.046;3.732;2023-08-06T12:05:23;17.40;99.90
23073;DHT22;67971;51.046;3.732;2023-08-06T12:07:54;17.60;99.90
23073;DHT22;67971;51.046;3.732;2023-08-06T12:10:21;17.50;99.90
23073;DHT22;67971;51.046;3.732;2023-08-06T12:12:47;17.40;99.90
23073;DHT22;67971;51.046;3.732;2023-08-06T12:15:13;17.40;99.90
23073;DHT22;67971;51.046;3.732;2023-08-06T12:17:39;17.80;99.90
23073;DHT22;67971;51.046;3.732;2023-08-06T12:20:06;18.00;99.90
23073;DHT22;67971;51.046;3.732;2023-08-06T12:22:33;18.10;99.90
23073;DHT22;67971;51.046;3.732;2023-08-06T12:25:03;17.80;99.90
23073;DHT22;67971;51.046;3.732;2023-08-06T12:27:29;17.60;99.90
23073;DHT22;67971;51.046;3.732;2023-08-06T12:29:55;17.60;99.90
23073;DHT22;67971;51.046;3.732;2023-08-06T12:32:20;17.70;99.90
23073;DHT22;67971;51.046;3.732;2023-08-06T12:34:47;18.00;99.90
23073;DHT22;67971;51.046;3.732;2023-08-06T12:37:12;18.30;99.90
23073;DHT22;67971;51.046;3.732;2023-08-06T12:39:38;18.30;99.90
23073;DHT22;67971;51.046;3.732;2023-08-06T12:42:05;18.20;99.90
23073;DHT22;67971;51.046;3.732;2023-08-06T12:44:31;18.30;99.90
23073;DHT22;67971;51.046;3.732;2023-08-06T12:46:57;18.30;99.90
23073;DHT22;67971;51.046;3.732;2023-08-06T12:49:24;18.50;99.90
23073;DHT22;67971;51.046;3.732;2023-08-06T12:51:50;18.50;99.90
23073;DHT22;67971;51.046;3.732;2023-08-06T12:54:17;18.10;99.90
23073;DHT22;67971;51.046;3.732;2023-08-06T12:56:44;17.60;99.90
23073;DHT22;67971;51.046;3.732;2023-08-06T12:59:09;17.40;99.90
23073;DHT22;67971;51.046;3.732;2023-08-06T13:01:36;17.30;99.90
23073;DHT22;67971;51.046;3.732;2023-08-06T13:04:02;17.20;99.90
23073;DHT22;67971;51.046;3.732;2023-08-06T13:06:28;17.50;99.90
23073;DHT22;67971;51.046;3.732;2023-08-06T13:08:53;18.10;99.90
23073;DHT22;67971;51.046;3.732;2023-08-06T13:11:19;18.60;99.90
23073;DHT22;67971;51.046;3.732;2023-08-06T13:13:45;18.90;99.90
23073;DHT22;67971;51.046;3.732;2023-08-06T13:16:10;18.80;99.90
23073;DHT22;67971;51.046;3.732;2023-08-06T13:18:36;18.50;99.90
23073;DHT22;67971;51.046;3.732;2023-08-06T13:21:02;18.10;99.90
23073;DHT22;67971;51.046;3.732;2023-08-06T13:23:27;17.80;99.90
23073;DHT22;67971;51.046;3.732;2023-08-06T13:25:53;17.70;99.90
23073;DHT22;67971;51.046;3.732;2023-08-06T13:28:19;17.40;99.90
23073;DHT22;67971;51.046;3.732;2023-08-06T13:30:45;17.30;99.90
23073;DHT22;67971;51.046;3.732;2023-08-06T13:33:11;17.20;99.90
23073;DHT22;67971;51.046;3.732;2023-08-06T13:35:37;17.10;99.90
23073;DHT22;67971;51.046;3.732;2023-08-06T13:38:04;17.00;99.90
23073;DHT22;67971;51.046;3.732;2023-08-06T13:40:31;17.00;99.90
23073;DHT22;67971;51.046;3.732;2023-08-06T13:42:57;17.10;99.90
23073;DHT22;67971;51.046;3.732;2023-08-06T13:45:23;17.30;99.90
23073;DHT22;67971;51.046;3.732;2023-08-06T13:47:49;17.50;99.90
23073;DHT22;67971;51.046;3.732;2023-08-06T13:50:15;17.80;99.90
23073;DHT22;67971;51.046;3.732;2023-08-06T13:52:40;17.90;99.90
23073;DHT22;67971;51.046;3.732;2023-08-06T13:55:06;18.00;99.90
23073;DHT22;67971;51.046;3.732;2023-08-06T13:57:34;18.40;99.90
23073;DHT22;67971;51.046;3.732;2023-08-06T14:00:00;18.70;99.90
23073;DHT22;67971;51.046;3.732;2023-08-06T14:02:25;18.90;99.90
23073;DHT22;67971;51.046;3.732;2023-08-06T14:04:52;19.10;99.90
23073;DHT22;67971;51.046;3.732;2023-08-06T14:07:19;19.30;99.90
23073;DHT22;67971;51.046;3.732;2023-08-06T14:09:45;19.60;99.90
23073;DHT22;67971;51.046;3.732;2023-08-06T14:12:12;20.00;99.90
23073;DHT22;67971;51.046;3.732;2023-08-06T14:14:38;20.20;99.90
23073;DHT22;67971;51.046;3.732;2023-08-06T14:17:03;20.80;99.90
23073;DHT22;67971;51.046;3.732;2023-08-06T14:19:29;21.40;99.90
23073;DHT22;67971;51.046;3.732;2023-08-06T14:21:55;21.50;99.90
23073;DHT22;67971;51.046;3.732;2023-08-06T14:24:21;21.40;99.90
23073;DHT22;67971;51.046;3.732;2023-08-06T14:26:47;20.90;99.90
23073;DHT22;67971;51.046;3.732;2023-08-06T14:29:12;21.10;99.90
23073;DHT22;67971;51.046;3.732;2023-08-06T14:31:39;21.70;99.90
23073;DHT22;67971;51.046;3.732;2023-08-06T14:34:05;21.60;99.90
23073;DHT22;67971;51.046;3.732;2023-08-06T14:36:30;21.30;99.90
23073;DHT22;67971;51.046;3.732;2023-08-06T14:38:56;20.90;99.90
23073;DHT22;67971;51.046;3.732;2023-08-06T14:41:22;20.30;99.90
23073;DHT22;67971;51.046;3.732;2023-08-06T14:43:47;20.30;99.90
23073;DHT22;67971;51.046;3.732;2023-08-06T14:46:13;20.40;99.90
23073;DHT22;67971;51.046;3.732;2023-08-06T14:48:39;20.30;99.90
23073;DHT22;67971;51.046;3.732;2023-08-06T14:51:04;20.30;99.90
23073;DHT22;67971;51.046;3.732;2023-08-06T14:53:30;20.50;99.90
23073;DHT22;67971;51.046;3.732;2023-08-06T14:55:56;20.90;99.90
23073;DHT22;67971;51.046;3.732;2023-08-06T14:58:21;20.70;99.90
23073;DHT22;67971;51.046;3.732;2023-08-06T15:00:47;20.80;99.90
23073;DHT22;67971;51.046;3.732;2023-08-06T15:03:13;21.00;99.90
23073;DHT22;67971;51.046;3.732;2023-08-06T15:05:38;20.90;99.90
23073;DHT22;67971;51.046;3.732;2023-08-06T15:08:04;20.50;99.90
23073;DHT22;67971;51.046;3.732;2023-08-06T15:10:29;20.50;99.90
23073;DHT22;67971;51.046;3.732;2023-08-06T15:12:55;20.80;99.90
23073;DHT22;67971;51.046;3.732;2023-08-06T15:15:21;21.60;99.90
23073;DHT22;67971;51.046;3.732;2023-08-06T15:17:50;22.90;99.90
23073;DHT22;67971;51.046;3.732;2023-08-06T15:20:15;23.70;99.90
23073;DHT22;67971;51.046;3.732;2023-08-06T15:22:41;23.20;99.90
23073;DHT22;67971;51.046;3.732;2023-08-06T15:25:07;22.90;99.90
23073;DHT22;67971;51.046;3.732;2023-08-06T15:27:32;22.70;99.90
23073;DHT22;67971;51.046;3.732;2023-08-06T15:29:59;22.60;99.90
23073;DHT22;67971;51.046;3.732;2023-08-06T15:32:24;21.70;99.90
23073;DHT22;67971;51.046;3.732;2023-08-06T15:34:51;21.80;99.90
23073;DHT22;67971;51.046;3.732;2023-08-06T15:37:16;22.60;99.90